Weather History for Brenham, TX

Change the Weather History Date:

Tuesday, September 3, 2013

  Actual Average (KCLL) Record (KCLL)
Temperature  
Mean Temperature 90 °F 83 °F  
Max Temperature 102 °F 94 °F 109 °F (2000)
Min Temperature 79 °F 73 °F 60 °F (1919)
Degree Days  
Heating Degree Days 0 0  
Month to date heating degree days 0  
Since 1 July heating degree days 0  
Cooling Degree Days 25 18  
Month to date cooling degree days 56  
Year to date cooling degree days 2402  
Growing Degree Days 40 (Base 50)    
Moisture  
Dew Point 69 °F    
Average Humidity 56    
Maximum Humidity 82    
Minimum Humidity 25    
Precipitation  
Precipitation 0.00 in 0.11 in 2.81 in (2003)
Month to date precipitation 0.32  
Year to date precipitation 25.84  
Sea Level Pressure  
Sea Level Pressure 29.94 in    
Wind  
Wind Speed 3 mph (SSW)    
Max Wind Speed 10 mph    
Max Gust Speed 16 mph    
Visibility 10 miles    
Events Thunderstorm    
T = Trace of Precipitation, MM = Missing Value Source: NWS Daily Summary

Daily Weather History Graph

Daily Weather History Graph

Search for Another Location

Airport:

Trip Planner

Search our weather history database for the weather conditions in past years. The results will help you decide how hot, cold, wet, or windy it might be!

Date:

Astronomy

Sep. 03, 2013 Rise Set
Actual Time 7:03 AM CDT 7:45 PM CDT
Civil Twilight 6:39 AM CDT 8:09 PM CDT
Nautical Twilight 6:10 AM CDT 8:38 PM CDT
Astronomical Twilight 5:41 AM CDT 9:07 PM CDT
Moon 5:22 AM CDT (9/3) 6:31 PM CDT (9/3)
Length of Visible Light 13h 30m
Length of Day
12h 41m
Waning Crescent, 3% of the Moon is Illuminated
Sep 3
Waning Crescent
Sep 5
New
Sep 12
First Quarter
Sep 19
Full
Sep 26
Last Quarter

Hourly Weather History & Observations

Time (CDT) Temp. Heat Index Dew Point Humidity Pressure Visibility Wind Dir Wind Speed Gust Speed Precip Events Conditions
12:15 AM 84.4 °F 91.0 °F 73.4 °F 69% 29.95 in 10.0 mi Calm Calm - N/A   Clear
12:35 AM 84.2 °F 90.9 °F 73.4 °F 70% 29.95 in 10.0 mi SW 4.6 mph - N/A   Clear
12:55 AM 83.7 °F 90.4 °F 73.6 °F 72% 29.96 in 10.0 mi Calm Calm - N/A   Clear
1:15 AM 83.3 °F 89.9 °F 73.8 °F 73% 29.97 in 10.0 mi SSW 3.5 mph - N/A   Clear
1:35 AM 82.8 °F 89.0 °F 73.8 °F 74% 29.96 in 10.0 mi WSW 3.5 mph - N/A   Clear
1:55 AM 82.4 °F 88.7 °F 74.3 °F 76% 29.95 in 10.0 mi SSW 4.6 mph - N/A   Clear
2:15 AM 81.9 °F 88.0 °F 74.3 °F 78% 29.95 in 10.0 mi SW 3.5 mph - N/A   Clear
2:35 AM 81.9 °F 88.0 °F 74.3 °F 78% 29.95 in 10.0 mi SSW 3.5 mph - N/A   Clear
2:55 AM 81.9 °F 88.0 °F 74.3 °F 78% 29.95 in 10.0 mi Calm Calm - N/A   Clear
3:15 AM 81.5 °F 87.4 °F 74.3 °F 79% 29.95 in 10.0 mi Calm Calm - N/A   Clear
3:35 AM 81.3 °F 87.0 °F 74.1 °F 79% 29.95 in 10.0 mi South 3.5 mph - N/A   Clear
3:55 AM 81.0 °F 86.2 °F 73.9 °F 79% 29.94 in 10.0 mi Calm Calm - N/A   Clear
4:15 AM 80.6 °F 85.5 °F 73.8 °F 80% 29.94 in 10.0 mi SSW 3.5 mph - N/A   Clear
4:35 AM 80.6 °F 85.4 °F 73.4 °F 79% 29.94 in 10.0 mi SW 3.5 mph - N/A   Clear
4:55 AM 80.1 °F 84.4 °F 73.4 °F 80% 29.94 in 10.0 mi Calm Calm - N/A   Clear
5:15 AM 79.9 °F - 73.0 °F 80% 29.94 in 10.0 mi Calm Calm - N/A   Clear
5:35 AM 79.7 °F - 72.9 °F 80% 29.95 in 10.0 mi Calm Calm - N/A   Clear
5:55 AM 80.1 °F 84.1 °F 72.5 °F 78% 29.95 in 10.0 mi Calm Calm - N/A   Clear
6:15 AM 79.9 °F - 72.5 °F 78% 29.95 in 10.0 mi Calm Calm - N/A   Clear
6:35 AM 79.3 °F - 72.5 °F 79% 29.96 in 10.0 mi Calm Calm - N/A   Clear
6:55 AM 79.7 °F - 72.5 °F 79% 29.96 in 10.0 mi Calm Calm - N/A   Clear
7:15 AM 79.0 °F - 72.5 °F 80% 29.96 in 10.0 mi Calm Calm - N/A   Clear
7:35 AM 79.0 °F - 73.0 °F 82% 29.97 in 10.0 mi Calm Calm - N/A   Clear
7:55 AM 79.7 °F - 72.9 °F 80% 29.97 in 10.0 mi Calm Calm - N/A   Clear
8:15 AM 81.3 °F 85.9 °F 72.5 °F 74% 29.97 in 10.0 mi West 4.6 mph - N/A   Clear
8:35 AM 83.3 °F 88.7 °F 72.3 °F 69% 29.98 in 10.0 mi WSW 5.8 mph - N/A   Clear
8:55 AM 83.7 °F 89.2 °F 72.1 °F 68% 29.99 in 10.0 mi WSW 5.8 mph - N/A   Clear
9:15 AM 84.2 °F 89.9 °F 72.3 °F 67% 29.99 in 10.0 mi WSW 4.6 mph - N/A   Clear
9:35 AM 86.0 °F 92.6 °F 72.3 °F 64% 30.00 in 10.0 mi West 3.5 mph - N/A   Clear
9:55 AM 86.9 °F 92.9 °F 71.6 °F 60% 30.00 in 10.0 mi WNW 4.6 mph - N/A   Clear
10:15 AM 88.5 °F 94.0 °F 70.7 °F 55% 30.00 in 10.0 mi West 4.6 mph - N/A   Clear
10:35 AM 91.0 °F 96.1 °F 69.6 °F 49% 30.00 in 10.0 mi West 5.8 mph - N/A   Clear
10:55 AM 92.3 °F 96.1 °F 67.8 °F 44% 30.00 in 10.0 mi WNW 3.5 mph - N/A   Clear
11:15 AM 93.6 °F 96.4 °F 65.8 °F 40% 30.00 in 10.0 mi West 4.6 mph - N/A   Clear
11:35 AM 94.1 °F 96.9 °F 65.7 °F 39% 30.00 in 10.0 mi Calm Calm - N/A   Clear
11:55 AM 96.3 °F 99.7 °F 66.0 °F 37% 30.00 in 10.0 mi NW 8.1 mph - N/A   Scattered Clouds
12:15 PM 96.3 °F 99.1 °F 65.5 °F 36% 30.00 in 10.0 mi NW 4.6 mph - N/A   Scattered Clouds
12:35 PM 95.2 °F 97.8 °F 64.9 °F 37% 29.99 in 10.0 mi Calm Calm - N/A   Scattered Clouds
12:55 PM 96.4 °F 98.4 °F 64.2 °F 34% 29.98 in 10.0 mi NE 3.5 mph - N/A   Clear
1:15 PM 97.9 °F 100.3 °F 63.9 °F 33% 29.98 in 10.0 mi West 5.8 mph - N/A   Clear
1:35 PM 99.0 °F 101.7 °F 64.2 °F 32% 29.97 in 10.0 mi SW 8.1 mph - N/A   Clear
1:55 PM 98.6 °F 100.5 °F 63.1 °F 31% 29.95 in 10.0 mi West 3.5 mph - N/A   Clear
2:15 PM 99.0 °F 101.1 °F 63.1 °F 31% 29.94 in 10.0 mi SSE 5.8 mph - N/A   Clear
2:35 PM 99.7 °F 100.7 °F 61.5 °F 28% 29.93 in 10.0 mi SE 5.8 mph - N/A   Clear
2:55 PM 100.6 °F 101.6 °F 60.6 °F 27% 29.91 in 10.0 mi South 4.6 mph - N/A   Clear
3:15 PM 100.9 °F 102.1 °F 61.0 °F 27% 29.90 in 10.0 mi ESE 4.6 mph - N/A   Clear
3:35 PM 100.9 °F 102.1 °F 61.0 °F 27% 29.90 in 10.0 mi West 3.5 mph - N/A   Clear
3:55 PM 99.7 °F 100.1 °F 60.1 °F 27% 29.89 in 10.0 mi South 3.5 mph - N/A   Clear
4:15 PM 101.3 °F 101.6 °F 59.5 °F 25% 29.88 in 10.0 mi South 3.5 mph - N/A   Clear
4:35 PM 100.9 °F 101.0 °F 59.0 °F 25% 29.87 in 10.0 mi South 3.5 mph - N/A   Clear
4:55 PM 101.7 °F 102.2 °F 59.2 °F 25% 29.86 in 10.0 mi West 3.5 mph - N/A   Clear
5:15 PM 100.2 °F 100.5 °F 60.1 °F 26% 29.87 in 10.0 mi ENE 9.2 mph - N/A Thunderstorm Scattered Clouds
5:35 PM 94.5 °F 97.0 °F 65.1 °F 38% 29.89 in 10.0 mi North 10.4 mph 16.1 mph N/A   Mostly Cloudy
5:55 PM 92.7 °F 95.3 °F 65.5 °F 41% 29.90 in 10.0 mi NNE 4.6 mph - N/A Thunderstorm Scattered Clouds
6:15 PM 91.8 °F 94.6 °F 66.6 °F 43% 29.91 in 10.0 mi West 3.5 mph - N/A   Clear
6:35 PM 91.0 °F 94.3 °F 67.3 °F 45% 29.90 in 10.0 mi ESE 5.8 mph - N/A   Clear
6:55 PM 90.7 °F 94.5 °F 68.0 °F 47% 29.90 in 10.0 mi SE 5.8 mph - N/A   Clear
7:15 PM 89.8 °F 93.3 °F 67.5 °F 48% 29.90 in 10.0 mi SSE 6.9 mph - N/A   Clear
7:35 PM 89.2 °F 93.2 °F 68.2 °F 50% 29.91 in 10.0 mi SSE 3.5 mph - N/A   Clear
7:55 PM 88.9 °F 92.2 °F 67.5 °F 49% 29.91 in 10.0 mi SE 4.6 mph - N/A   Clear
8:15 PM 88.3 °F 91.2 °F 67.1 °F 49% 29.91 in 10.0 mi SSE 4.6 mph - N/A   Clear
8:35 PM 87.8 °F 90.4 °F 66.6 °F 49% 29.91 in 10.0 mi SSE 4.6 mph - N/A   Scattered Clouds
8:55 PM 87.1 °F 89.5 °F 66.6 °F 50% 29.91 in 10.0 mi SSE 3.5 mph - N/A   Clear
9:15 PM 86.9 °F 89.9 °F 67.1 °F 52% 29.91 in 10.0 mi South 3.5 mph - N/A   Clear
9:35 PM 86.0 °F 88.8 °F 67.1 °F 53% 29.91 in 10.0 mi Calm Calm - N/A   Clear
9:55 PM 85.8 °F 88.8 °F 67.6 °F 54% 29.92 in 10.0 mi Calm Calm - N/A   Clear
10:15 PM 84.6 °F 87.6 °F 68.0 °F 57% 29.92 in 10.0 mi Calm Calm - N/A   Clear
10:35 PM 84.7 °F 87.9 °F 68.2 °F 57% 29.92 in 10.0 mi Calm Calm - N/A   Clear
10:55 PM 83.3 °F 86.6 °F 68.4 °F 61% 29.94 in 10.0 mi Calm Calm - N/A   Clear
11:15 PM 82.9 °F 86.3 °F 68.7 °F 62% 29.95 in 10.0 mi SE 4.6 mph - N/A   Clear
11:35 PM 83.3 °F 86.9 °F 69.3 °F 62% 29.94 in 10.0 mi SSE 3.5 mph - N/A   Clear
11:55 PM 83.3 °F 87.4 °F 69.8 °F 64% 29.95 in 10.0 mi Calm Calm - N/A   Clear